sensor_id;sensor_type;location;lat;lon;timestamp;P1;durP1;ratioP1;P2;durP2;ratioP2
6467;SDS011;3267;48.794;9.928;2023-06-22T04:03:15;10.40;;;6.45;;
6467;SDS011;3267;48.794;9.928;2023-06-22T04:05:45;8.05;;;6.60;;
6467;SDS011;3267;48.794;9.928;2023-06-22T04:08:12;9.20;;;5.70;;
6467;SDS011;3267;48.794;9.928;2023-06-22T04:10:39;10.45;;;6.15;;
6467;SDS011;3267;48.794;9.928;2023-06-22T04:13:04;8.18;;;6.72;;
6467;SDS011;3267;48.794;9.928;2023-06-22T04:15:30;10.75;;;6.65;;
6467;SDS011;3267;48.794;9.928;2023-06-22T04:17:56;9.52;;;6.50;;
6467;SDS011;3267;48.794;9.928;2023-06-22T04:20:22;10.05;;;6.82;;
6467;SDS011;3267;48.794;9.928;2023-06-22T04:22:53;9.57;;;7.05;;
6467;SDS011;3267;48.794;9.928;2023-06-22T04:25:19;8.30;;;6.78;;
6467;SDS011;3267;48.794;9.928;2023-06-22T04:27:46;8.43;;;6.13;;
6467;SDS011;3267;48.794;9.928;2023-06-22T04:30:12;7.93;;;6.10;;
6467;SDS011;3267;48.794;9.928;2023-06-22T04:32:40;8.77;;;6.40;;
6467;SDS011;3267;48.794;9.928;2023-06-22T04:35:06;11.07;;;6.40;;
6467;SDS011;3267;48.794;9.928;2023-06-22T04:37:32;8.70;;;6.30;;
6467;SDS011;3267;48.794;9.928;2023-06-22T04:39:58;9.13;;;6.10;;
6467;SDS011;3267;48.794;9.928;2023-06-22T04:42:27;6.68;;;5.75;;
6467;SDS011;3267;48.794;9.928;2023-06-22T04:44:53;8.73;;;6.25;;
6467;SDS011;3267;48.794;9.928;2023-06-22T04:47:19;8.23;;;5.40;;
6467;SDS011;3267;48.794;9.928;2023-06-22T04:49:45;8.73;;;6.05;;
6467;SDS011;3267;48.794;9.928;2023-06-22T04:52:11;7.40;;;5.68;;
6467;SDS011;3267;48.794;9.928;2023-06-22T04:54:38;8.52;;;5.43;;
6467;SDS011;3267;48.794;9.928;2023-06-22T04:57:06;6.95;;;5.30;;
6467;SDS011;3267;48.794;9.928;2023-06-22T04:59:36;12.05;;;3.80;;
6467;SDS011;3267;48.794;9.928;2023-06-22T05:02:04;6.43;;;4.18;;
6467;SDS011;3267;48.794;9.928;2023-06-22T05:04:31;5.60;;;3.90;;
6467;SDS011;3267;48.794;9.928;2023-06-22T05:06:57;4.00;;;3.55;;
6467;SDS011;3267;48.794;9.928;2023-06-22T05:09:23;6.38;;;3.50;;
6467;SDS011;3267;48.794;9.928;2023-06-22T05:11:50;5.50;;;3.58;;
6467;SDS011;3267;48.794;9.928;2023-06-22T05:14:16;3.97;;;2.97;;
6467;SDS011;3267;48.794;9.928;2023-06-22T05:16:42;3.22;;;2.90;;
6467;SDS011;3267;48.794;9.928;2023-06-22T05:19:08;4.18;;;3.08;;
6467;SDS011;3267;48.794;9.928;2023-06-22T05:21:34;6.95;;;3.60;;
6467;SDS011;3267;48.794;9.928;2023-06-22T05:24:00;7.18;;;3.70;;
6467;SDS011;3267;48.794;9.928;2023-06-22T05:26:28;6.80;;;3.28;;
6467;SDS011;3267;48.794;9.928;2023-06-22T05:28:55;9.00;;;3.03;;
6467;SDS011;3267;48.794;9.928;2023-06-22T05:31:21;6.22;;;3.58;;
6467;SDS011;3267;48.794;9.928;2023-06-22T05:33:51;9.27;;;3.03;;
6467;SDS011;3267;48.794;9.928;2023-06-22T05:36:18;6.90;;;4.03;;
6467;SDS011;3267;48.794;9.928;2023-06-22T05:38:50;7.88;;;3.45;;
6467;SDS011;3267;48.794;9.928;2023-06-22T05:41:18;8.75;;;2.88;;
6467;SDS011;3267;48.794;9.928;2023-06-22T05:43:44;5.30;;;2.90;;
6467;SDS011;3267;48.794;9.928;2023-06-22T05:46:10;3.67;;;2.85;;
6467;SDS011;3267;48.794;9.928;2023-06-22T05:48:36;4.22;;;3.10;;
6467;SDS011;3267;48.794;9.928;2023-06-22T05:51:01;3.72;;;2.97;;
6467;SDS011;3267;48.794;9.928;2023-06-22T05:53:27;7.78;;;3.08;;
6467;SDS011;3267;48.794;9.928;2023-06-22T05:55:53;6.55;;;2.92;;
6467;SDS011;3267;48.794;9.928;2023-06-22T05:58:18;5.78;;;3.08;;
6467;SDS011;3267;48.794;9.928;2023-06-22T06:00:44;8.15;;;3.30;;
6467;SDS011;3267;48.794;9.928;2023-06-22T06:03:11;5.43;;;3.70;;
6467;SDS011;3267;48.794;9.928;2023-06-22T06:05:37;6.65;;;3.00;;
6467;SDS011;3267;48.794;9.928;2023-06-22T06:08:03;4.13;;;2.95;;
6467;SDS011;3267;48.794;9.928;2023-06-22T06:10:33;4.00;;;2.65;;
6467;SDS011;3267;48.794;9.928;2023-06-22T06:13:00;5.65;;;2.90;;
6467;SDS011;3267;48.794;9.928;2023-06-22T06:15:30;7.28;;;3.08;;
6467;SDS011;3267;48.794;9.928;2023-06-22T06:17:56;5.53;;;2.35;;
6467;SDS011;3267;48.794;9.928;2023-06-22T06:20:22;9.65;;;2.80;;
6467;SDS011;3267;48.794;9.928;2023-06-22T06:22:49;6.63;;;2.85;;
6467;SDS011;3267;48.794;9.928;2023-06-22T06:25:15;4.57;;;2.10;;
6467;SDS011;3267;48.794;9.928;2023-06-22T06:27:45;4.20;;;3.22;;
6467;SDS011;3267;48.794;9.928;2023-06-22T06:30:11;5.82;;;2.45;;
6467;SDS011;3267;48.794;9.928;2023-06-22T06:32:39;1.83;;;1.25;;
6467;SDS011;3267;48.794;9.928;2023-06-22T06:35:06;6.70;;;2.53;;
6467;SDS011;3267;48.794;9.928;2023-06-22T06:37:37;5.43;;;2.47;;
6467;SDS011;3267;48.794;9.928;2023-06-22T06:40:05;3.58;;;2.05;;
6467;SDS011;3267;48.794;9.928;2023-06-22T06:42:35;7.30;;;2.25;;
6467;SDS011;3267;48.794;9.928;2023-06-22T06:45:07;3.97;;;2.58;;
6467;SDS011;3267;48.794;9.928;2023-06-22T06:47:33;6.93;;;2.53;;
6467;SDS011;3267;48.794;9.928;2023-06-22T06:49:59;5.47;;;3.20;;
6467;SDS011;3267;48.794;9.928;2023-06-22T06:52:25;5.20;;;2.40;;
6467;SDS011;3267;48.794;9.928;2023-06-22T06:54:54;6.47;;;2.58;;
6467;SDS011;3267;48.794;9.928;2023-06-22T06:57:20;6.57;;;2.70;;
6467;SDS011;3267;48.794;9.928;2023-06-22T06:59:46;8.15;;;2.55;;
6467;SDS011;3267;48.794;9.928;2023-06-22T07:02:11;6.18;;;2.67;;
6467;SDS011;3267;48.794;9.928;2023-06-22T07:04:37;4.47;;;2.03;;
6467;SDS011;3267;48.794;9.928;2023-06-22T07:07:03;7.18;;;2.13;;
6467;SDS011;3267;48.794;9.928;2023-06-22T07:09:28;7.72;;;2.60;;
6467;SDS011;3267;48.794;9.928;2023-06-22T07:11:54;5.13;;;2.33;;
6467;SDS011;3267;48.794;9.928;2023-06-22T07:14:20;6.80;;;2.45;;
6467;SDS011;3267;48.794;9.928;2023-06-22T07:16:45;6.05;;;2.95;;
6467;SDS011;3267;48.794;9.928;2023-06-22T07:19:11;7.43;;;2.50;;
6467;SDS011;3267;48.794;9.928;2023-06-22T07:21:38;6.18;;;2.78;;
6467;SDS011;3267;48.794;9.928;2023-06-22T07:24:04;2.28;;;1.60;;
6467;SDS011;3267;48.794;9.928;2023-06-22T07:26:31;4.63;;;2.75;;
6467;SDS011;3267;48.794;9.928;2023-06-22T07:28:57;3.72;;;1.85;;
6467;SDS011;3267;48.794;9.928;2023-06-22T07:31:25;10.20;;;3.00;;
6467;SDS011;3267;48.794;9.928;2023-06-22T07:33:51;8.10;;;3.00;;
6467;SDS011;3267;48.794;9.928;2023-06-22T07:36:17;8.15;;;2.08;;
6467;SDS011;3267;48.794;9.928;2023-06-22T07:38:43;10.02;;;2.50;;
6467;SDS011;3267;48.794;9.928;2023-06-22T07:41:09;5.05;;;2.38;;
6467;SDS011;3267;48.794;9.928;2023-06-22T07:43:35;8.90;;;2.80;;
6467;SDS011;3267;48.794;9.928;2023-06-22T07:46:05;6.75;;;2.47;;
6467;SDS011;3267;48.794;9.928;2023-06-22T07:48:32;27.67;;;5.15;;
6467;SDS011;3267;48.794;9.928;2023-06-22T07:50:58;10.05;;;2.88;;
6467;SDS011;3267;48.794;9.928;2023-06-22T07:53:23;8.52;;;3.20;;
6467;SDS011;3267;48.794;9.928;2023-06-22T07:55:49;9.70;;;2.70;;
6467;SDS011;3267;48.794;9.928;2023-06-22T07:58:15;11.57;;;2.72;;
6467;SDS011;3267;48.794;9.928;2023-06-22T08:00:41;11.52;;;2.60;;
6467;SDS011;3267;48.794;9.928;2023-06-22T08:03:07;8.18;;;2.63;;
6467;SDS011;3267;48.794;9.928;2023-06-22T08:05:32;32.15;;;5.07;;
6467;SDS011;3267;48.794;9.928;2023-06-22T08:07:59;7.65;;;3.38;;
6467;SDS011;3267;48.794;9.928;2023-06-22T08:10:25;8.98;;;2.90;;
6467;SDS011;3267;48.794;9.928;2023-06-22T08:12:51;11.70;;;3.08;;
6467;SDS011;3267;48.794;9.928;2023-06-22T08:15:17;8.75;;;3.22;;
6467;SDS011;3267;48.794;9.928;2023-06-22T08:17:43;7.60;;;3.00;;
6467;SDS011;3267;48.794;9.928;2023-06-22T08:20:10;4.45;;;2.78;;
6467;SDS011;3267;48.794;9.928;2023-06-22T08:22:40;6.13;;;3.28;;
6467;SDS011;3267;48.794;9.928;2023-06-22T08:25:07;7.30;;;3.47;;
6467;SDS011;3267;48.794;9.928;2023-06-22T08:27:33;7.40;;;3.40;;
6467;SDS011;3267;48.794;9.928;2023-06-22T08:29:59;8.02;;;3.38;;
6467;SDS011;3267;48.794;9.928;2023-06-22T08:32:26;8.35;;;3.08;;
6467;SDS011;3267;48.794;9.928;2023-06-22T08:34:53;9.88;;;3.78;;
6467;SDS011;3267;48.794;9.928;2023-06-22T08:37:22;9.63;;;3.88;;
6467;SDS011;3267;48.794;9.928;2023-06-22T08:39:55;8.23;;;4.13;;
6467;SDS011;3267;48.794;9.928;2023-06-22T08:42:23;6.93;;;3.00;;
6467;SDS011;3267;48.794;9.928;2023-06-22T08:44:53;8.10;;;3.17;;
6467;SDS011;3267;48.794;9.928;2023-06-22T08:47:19;10.00;;;3.88;;
6467;SDS011;3267;48.794;9.928;2023-06-22T08:49:45;10.48;;;3.53;;
6467;SDS011;3267;48.794;9.928;2023-06-22T08:52:11;14.70;;;3.05;;
6467;SDS011;3267;48.794;9.928;2023-06-22T08:54:36;10.80;;;4.22;;
6467;SDS011;3267;48.794;9.928;2023-06-22T08:57:03;15.68;;;3.60;;
6467;SDS011;3267;48.794;9.928;2023-06-22T08:59:29;12.15;;;3.78;;
6467;SDS011;3267;48.794;9.928;2023-06-22T09:01:55;13.75;;;4.20;;
6467;SDS011;3267;48.794;9.928;2023-06-22T09:04:21;9.65;;;3.90;;
6467;SDS011;3267;48.794;9.928;2023-06-22T09:06:47;11.15;;;3.55;;
6467;SDS011;3267;48.794;9.928;2023-06-22T09:09:15;6.72;;;3.97;;
6467;SDS011;3267;48.794;9.928;2023-06-22T09:11:41;12.13;;;4.00;;
6467;SDS011;3267;48.794;9.928;2023-06-22T09:14:07;7.72;;;3.72;;
6467;SDS011;3267;48.794;9.928;2023-06-22T09:16:33;11.43;;;4.03;;
6467;SDS011;3267;48.794;9.928;2023-06-22T09:18:59;11.10;;;4.05;;
6467;SDS011;3267;48.794;9.928;2023-06-22T09:21:25;11.05;;;4.15;;
6467;SDS011;3267;48.794;9.928;2023-06-22T09:23:51;10.18;;;4.15;;
6467;SDS011;3267;48.794;9.928;2023-06-22T09:26:20;10.02;;;3.65;;
6467;SDS011;3267;48.794;9.928;2023-06-22T09:28:46;12.23;;;4.03;;
6467;SDS011;3267;48.794;9.928;2023-06-22T09:31:12;17.92;;;4.20;;
6467;SDS011;3267;48.794;9.928;2023-06-22T09:33:39;9.45;;;3.70;;
6467;SDS011;3267;48.794;9.928;2023-06-22T09:36:06;8.40;;;4.72;;
6467;SDS011;3267;48.794;9.928;2023-06-22T09:38:35;11.85;;;4.32;;
6467;SDS011;3267;48.794;9.928;2023-06-22T09:41:04;13.02;;;4.28;;
6467;SDS011;3267;48.794;9.928;2023-06-22T09:43:31;12.05;;;3.67;;
6467;SDS011;3267;48.794;9.928;2023-06-22T09:45:57;17.27;;;4.57;;
6467;SDS011;3267;48.794;9.928;2023-06-22T09:48:22;8.52;;;3.55;;
6467;SDS011;3267;48.794;9.928;2023-06-22T09:50:48;11.85;;;3.38;;
6467;SDS011;3267;48.794;9.928;2023-06-22T09:53:14;8.38;;;3.78;;
6467;SDS011;3267;48.794;9.928;2023-06-22T09:55:40;8.63;;;3.50;;
6467;SDS011;3267;48.794;9.928;2023-06-22T09:58:06;18.55;;;3.97;;
6467;SDS011;3267;48.794;9.928;2023-06-22T10:00:31;11.18;;;4.13;;
6467;SDS011;3267;48.794;9.928;2023-06-22T10:02:58;9.05;;;4.38;;
6467;SDS011;3267;48.794;9.928;2023-06-22T10:05:24;10.00;;;4.10;;
6467;SDS011;3267;48.794;9.928;2023-06-22T10:07:50;11.77;;;3.72;;
6467;SDS011;3267;48.794;9.928;2023-06-22T10:10:15;6.60;;;3.60;;
6467;SDS011;3267;48.794;9.928;2023-06-22T10:12:42;6.40;;;3.70;;
6467;SDS011;3267;48.794;9.928;2023-06-22T10:15:10;11.18;;;3.80;;
6467;SDS011;3267;48.794;9.928;2023-06-22T10:17:36;11.10;;;4.03;;
6467;SDS011;3267;48.794;9.928;2023-06-22T10:20:02;12.15;;;4.60;;
6467;SDS011;3267;48.794;9.928;2023-06-22T10:22:38;12.10;;;4.15;;
6467;SDS011;3267;48.794;9.928;2023-06-22T10:25:07;9.15;;;4.63;;
6467;SDS011;3267;48.794;9.928;2023-06-22T10:27:34;9.65;;;3.70;;
6467;SDS011;3267;48.794;9.928;2023-06-22T10:30:00;11.20;;;4.72;;
6467;SDS011;3267;48.794;9.928;2023-06-22T10:32:25;10.70;;;4.50;;
6467;SDS011;3267;48.794;9.928;2023-06-22T10:34:53;11.95;;;4.40;;
6467;SDS011;3267;48.794;9.928;2023-06-22T10:37:19;13.57;;;4.05;;
6467;SDS011;3267;48.794;9.928;2023-06-22T10:39:44;13.85;;;4.65;;
6467;SDS011;3267;48.794;9.928;2023-06-22T10:42:11;12.82;;;3.58;;
6467;SDS011;3267;48.794;9.928;2023-06-22T10:44:37;12.52;;;4.43;;
6467;SDS011;3267;48.794;9.928;2023-06-22T10:47:06;9.65;;;4.40;;
6467;SDS011;3267;48.794;9.928;2023-06-22T10:49:32;9.18;;;4.13;;
6467;SDS011;3267;48.794;9.928;2023-06-22T10:51:57;12.32;;;4.68;;
6467;SDS011;3267;48.794;9.928;2023-06-22T10:54:23;18.40;;;5.80;;
6467;SDS011;3267;48.794;9.928;2023-06-22T10:56:49;16.73;;;4.63;;
6467;SDS011;3267;48.794;9.928;2023-06-22T10:59:15;10.77;;;4.10;;
6467;SDS011;3267;48.794;9.928;2023-06-22T11:01:41;13.88;;;4.22;;
6467;SDS011;3267;48.794;9.928;2023-06-22T11:04:07;12.15;;;5.10;;
6467;SDS011;3267;48.794;9.928;2023-06-22T11:06:32;11.40;;;4.03;;
6467;SDS011;3267;48.794;9.928;2023-06-22T11:08:58;9.13;;;4.13;;
6467;SDS011;3267;48.794;9.928;2023-06-22T11:11:25;13.05;;;4.00;;
6467;SDS011;3267;48.794;9.928;2023-06-22T11:13:51;11.55;;;4.85;;
6467;SDS011;3267;48.794;9.928;2023-06-22T11:16:17;10.05;;;4.38;;
6467;SDS011;3267;48.794;9.928;2023-06-22T11:18:43;16.90;;;4.85;;
6467;SDS011;3267;48.794;9.928;2023-06-22T11:21:08;10.38;;;4.60;;
6467;SDS011;3267;48.794;9.928;2023-06-22T11:23:35;17.70;;;5.13;;
6467;SDS011;3267;48.794;9.928;2023-06-22T11:26:01;17.83;;;4.95;;
6467;SDS011;3267;48.794;9.928;2023-06-22T11:28:27;8.07;;;4.47;;
6467;SDS011;3267;48.794;9.928;2023-06-22T11:30:53;11.45;;;4.22;;
6467;SDS011;3267;48.794;9.928;2023-06-22T11:33:18;16.00;;;5.03;;
6467;SDS011;3267;48.794;9.928;2023-06-22T11:35:44;9.43;;;4.20;;
6467;SDS011;3267;48.794;9.928;2023-06-22T11:38:10;8.55;;;3.95;;
6467;SDS011;3267;48.794;9.928;2023-06-22T11:40:36;14.10;;;4.68;;
6467;SDS011;3267;48.794;9.928;2023-06-22T11:43:01;10.55;;;4.53;;
6467;SDS011;3267;48.794;9.928;2023-06-22T11:45:27;15.00;;;4.82;;
6467;SDS011;3267;48.794;9.928;2023-06-22T11:47:53;11.63;;;4.63;;
6467;SDS011;3267;48.794;9.928;2023-06-22T11:50:20;12.73;;;5.40;;
6467;SDS011;3267;48.794;9.928;2023-06-22T11:52:45;13.07;;;5.32;;
6467;SDS011;3267;48.794;9.928;2023-06-22T11:55:11;10.60;;;4.18;;
6467;SDS011;3267;48.794;9.928;2023-06-22T11:57:37;8.68;;;4.72;;
6467;SDS011;3267;48.794;9.928;2023-06-22T12:00:03;9.90;;;5.00;;
6467;SDS011;3267;48.794;9.928;2023-06-22T12:02:41;12.65;;;4.82;;
6467;SDS011;3267;48.794;9.928;2023-06-22T12:05:07;15.88;;;5.20;;
6467;SDS011;3267;48.794;9.928;2023-06-22T12:07:33;12.23;;;4.68;;
6467;SDS011;3267;48.794;9.928;2023-06-22T12:09:58;8.70;;;4.63;;
6467;SDS011;3267;48.794;9.928;2023-06-22T12:12:24;12.95;;;5.10;;
6467;SDS011;3267;48.794;9.928;2023-06-22T12:14:50;8.93;;;5.13;;
6467;SDS011;3267;48.794;9.928;2023-06-22T12:17:15;14.85;;;4.70;;
6467;SDS011;3267;48.794;9.928;2023-06-22T12:19:41;11.68;;;4.97;;
6467;SDS011;3267;48.794;9.928;2023-06-22T12:22:07;11.43;;;5.40;;
6467;SDS011;3267;48.794;9.928;2023-06-22T12:24:32;12.75;;;4.47;;
6467;SDS011;3267;48.794;9.928;2023-06-22T12:26:58;10.68;;;5.53;;
6467;SDS011;3267;48.794;9.928;2023-06-22T12:29:23;13.82;;;4.72;;
6467;SDS011;3267;48.794;9.928;2023-06-22T12:31:49;10.88;;;4.53;;
6467;SDS011;3267;48.794;9.928;2023-06-22T12:34:15;12.70;;;4.93;;
6467;SDS011;3267;48.794;9.928;2023-06-22T12:36:41;14.70;;;5.25;;
6467;SDS011;3267;48.794;9.928;2023-06-22T12:39:07;13.30;;;4.18;;
6467;SDS011;3267;48.794;9.928;2023-06-22T12:41:33;11.30;;;4.45;;
6467;SDS011;3267;48.794;9.928;2023-06-22T12:43:58;10.60;;;4.05;;
6467;SDS011;3267;48.794;9.928;2023-06-22T12:46:24;13.07;;;4.82;;
6467;SDS011;3267;48.794;9.928;2023-06-22T12:48:50;13.75;;;4.72;;
6467;SDS011;3267;48.794;9.928;2023-06-22T12:51:20;8.73;;;4.70;;
6467;SDS011;3267;48.794;9.928;2023-06-22T12:53:47;11.00;;;4.53;;
6467;SDS011;3267;48.794;9.928;2023-06-22T12:56:12;14.40;;;5.10;;
6467;SDS011;3267;48.794;9.928;2023-06-22T12:58:39;16.95;;;4.95;;
6467;SDS011;3267;48.794;9.928;2023-06-22T13:01:05;11.07;;;5.15;;
6467;SDS011;3267;48.794;9.928;2023-06-22T13:03:31;16.75;;;4.40;;
6467;SDS011;3267;48.794;9.928;2023-06-22T13:05:57;15.05;;;5.22;;
6467;SDS011;3267;48.794;9.928;2023-06-22T13:08:23;12.05;;;4.75;;
6467;SDS011;3267;48.794;9.928;2023-06-22T13:10:48;14.68;;;5.18;;
6467;SDS011;3267;48.794;9.928;2023-06-22T13:13:14;15.82;;;5.38;;
6467;SDS011;3267;48.794;9.928;2023-06-22T13:15:40;15.70;;;6.03;;
6467;SDS011;3267;48.794;9.928;2023-06-22T13:18:06;8.85;;;4.95;;
6467;SDS011;3267;48.794;9.928;2023-06-22T13:20:32;16.77;;;4.82;;
6467;SDS011;3267;48.794;9.928;2023-06-22T13:22:59;13.52;;;5.18;;
6467;SDS011;3267;48.794;9.928;2023-06-22T13:25:24;12.18;;;4.45;;
6467;SDS011;3267;48.794;9.928;2023-06-22T13:27:51;8.40;;;4.55;;
6467;SDS011;3267;48.794;9.928;2023-06-22T13:30:17;10.32;;;4.80;;
6467;SDS011;3267;48.794;9.928;2023-06-22T13:32:43;17.30;;;7.15;;
6467;SDS011;3267;48.794;9.928;2023-06-22T13:35:09;11.90;;;4.53;;
6467;SDS011;3267;48.794;9.928;2023-06-22T13:37:36;9.80;;;4.72;;
6467;SDS011;3267;48.794;9.928;2023-06-22T13:40:02;10.68;;;5.35;;
6467;SDS011;3267;48.794;9.928;2023-06-22T13:42:30;9.57;;;4.28;;
6467;SDS011;3267;48.794;9.928;2023-06-22T13:44:56;13.30;;;4.75;;
6467;SDS011;3267;48.794;9.928;2023-06-22T13:47:22;22.00;;;4.90;;
6467;SDS011;3267;48.794;9.928;2023-06-22T13:49:48;9.02;;;4.13;;
6467;SDS011;3267;48.794;9.928;2023-06-22T13:52:14;14.93;;;4.40;;
6467;SDS011;3267;48.794;9.928;2023-06-22T13:54:40;15.98;;;4.30;;
6467;SDS011;3267;48.794;9.928;2023-06-22T13:57:06;14.77;;;4.60;;
6467;SDS011;3267;48.794;9.928;2023-06-22T13:59:32;10.30;;;4.38;;
6467;SDS011;3267;48.794;9.928;2023-06-22T14:01:58;13.10;;;4.55;;
6467;SDS011;3267;48.794;9.928;2023-06-22T14:04:24;14.25;;;4.13;;
6467;SDS011;3267;48.794;9.928;2023-06-22T14:06:50;11.38;;;4.00;;
6467;SDS011;3267;48.794;9.928;2023-06-22T14:09:16;10.20;;;4.40;;
6467;SDS011;3267;48.794;9.928;2023-06-22T14:14:32;8.02;;;3.97;;
6467;SDS011;3267;48.794;9.928;2023-06-22T14:16:58;11.57;;;4.80;;
6467;SDS011;3267;48.794;9.928;2023-06-22T14:19:24;13.52;;;4.75;;
6467;SDS011;3267;48.794;9.928;2023-06-22T14:21:50;11.52;;;4.07;;
6467;SDS011;3267;48.794;9.928;2023-06-22T14:24:16;10.13;;;4.35;;
6467;SDS011;3267;48.794;9.928;2023-06-22T14:26:42;17.33;;;4.15;;
6467;SDS011;3267;48.794;9.928;2023-06-22T14:29:08;13.63;;;4.63;;
6467;SDS011;3267;48.794;9.928;2023-06-22T14:31:34;14.77;;;4.32;;
6467;SDS011;3267;48.794;9.928;2023-06-22T14:34:00;11.35;;;4.55;;
6467;SDS011;3267;48.794;9.928;2023-06-22T14:36:28;20.35;;;4.60;;
6467;SDS011;3267;48.794;9.928;2023-06-22T14:38:54;11.90;;;4.82;;
6467;SDS011;3267;48.794;9.928;2023-06-22T14:41:20;13.82;;;3.97;;
6467;SDS011;3267;48.794;9.928;2023-06-22T14:43:47;9.50;;;4.15;;
6467;SDS011;3267;48.794;9.928;2023-06-22T14:46:17;8.70;;;4.13;;
6467;SDS011;3267;48.794;9.928;2023-06-22T14:48:43;14.35;;;4.00;;
6467;SDS011;3267;48.794;9.928;2023-06-22T14:51:09;16.60;;;3.97;;
6467;SDS011;3267;48.794;9.928;2023-06-22T14:53:36;12.25;;;3.40;;
6467;SDS011;3267;48.794;9.928;2023-06-22T14:56:02;10.43;;;3.58;;
6467;SDS011;3267;48.794;9.928;2023-06-22T14:58:31;12.45;;;4.10;;
6467;SDS011;3267;48.794;9.928;2023-06-22T15:01:01;9.35;;;3.75;;
6467;SDS011;3267;48.794;9.928;2023-06-22T15:03:28;14.32;;;3.83;;
6467;SDS011;3267;48.794;9.928;2023-06-22T15:05:55;8.95;;;3.53;;
6467;SDS011;3267;48.794;9.928;2023-06-22T15:08:22;10.95;;;3.83;;
6467;SDS011;3267;48.794;9.928;2023-06-22T15:10:48;7.65;;;4.07;;
6467;SDS011;3267;48.794;9.928;2023-06-22T15:13:14;16.15;;;4.00;;
6467;SDS011;3267;48.794;9.928;2023-06-22T15:15:42;9.02;;;3.97;;
6467;SDS011;3267;48.794;9.928;2023-06-22T15:18:08;14.07;;;3.55;;
6467;SDS011;3267;48.794;9.928;2023-06-22T15:20:34;11.77;;;3.75;;
6467;SDS011;3267;48.794;9.928;2023-06-22T15:23:00;12.55;;;3.53;;
6467;SDS011;3267;48.794;9.928;2023-06-22T15:25:26;12.27;;;4.43;;
6467;SDS011;3267;48.794;9.928;2023-06-22T15:27:53;9.02;;;4.18;;
6467;SDS011;3267;48.794;9.928;2023-06-22T15:30:21;11.88;;;3.70;;
6467;SDS011;3267;48.794;9.928;2023-06-22T15:32:47;10.50;;;3.17;;
6467;SDS011;3267;48.794;9.928;2023-06-22T15:35:14;11.43;;;3.45;;
6467;SDS011;3267;48.794;9.928;2023-06-22T15:37:43;10.90;;;3.58;;
6467;SDS011;3267;48.794;9.928;2023-06-22T15:40:09;8.40;;;3.42;;
6467;SDS011;3267;48.794;9.928;2023-06-22T15:42:35;13.73;;;3.47;;
6467;SDS011;3267;48.794;9.928;2023-06-22T15:45:01;10.73;;;3.40;;
6467;SDS011;3267;48.794;9.928;2023-06-22T15:47:27;13.10;;;3.20;;
6467;SDS011;3267;48.794;9.928;2023-06-22T15:49:53;6.97;;;2.97;;
6467;SDS011;3267;48.794;9.928;2023-06-22T15:52:19;12.82;;;3.45;;
6467;SDS011;3267;48.794;9.928;2023-06-22T15:54:46;9.27;;;3.53;;
6467;SDS011;3267;48.794;9.928;2023-06-22T15:57:12;11.40;;;4.05;;
6467;SDS011;3267;48.794;9.928;2023-06-22T15:59:41;13.90;;;3.67;;
6467;SDS011;3267;48.794;9.928;2023-06-22T16:02:08;12.82;;;4.75;;
6467;SDS011;3267;48.794;9.928;2023-06-22T16:04:34;9.00;;;3.58;;
6467;SDS011;3267;48.794;9.928;2023-06-22T16:07:01;9.98;;;3.42;;
6467;SDS011;3267;48.794;9.928;2023-06-22T16:09:27;10.10;;;3.47;;
6467;SDS011;3267;48.794;9.928;2023-06-22T16:11:55;11.07;;;3.58;;
6467;SDS011;3267;48.794;9.928;2023-06-22T16:14:21;16.00;;;3.70;;
6467;SDS011;3267;48.794;9.928;2023-06-22T16:16:48;8.45;;;3.67;;
6467;SDS011;3267;48.794;9.928;2023-06-22T16:19:14;8.75;;;3.55;;
6467;SDS011;3267;48.794;9.928;2023-06-22T16:21:40;7.57;;;3.55;;
6467;SDS011;3267;48.794;9.928;2023-06-22T16:24:06;10.82;;;3.97;;
6467;SDS011;3267;48.794;9.928;2023-06-22T16:26:40;9.80;;;3.95;;
6467;SDS011;3267;48.794;9.928;2023-06-22T16:29:07;9.55;;;3.67;;
6467;SDS011;3267;48.794;9.928;2023-06-22T16:31:33;10.90;;;3.80;;
6467;SDS011;3267;48.794;9.928;2023-06-22T16:33:59;24.55;;;4.45;;
6467;SDS011;3267;48.794;9.928;2023-06-22T16:36:26;15.65;;;4.68;;
6467;SDS011;3267;48.794;9.928;2023-06-22T16:38:52;14.68;;;4.60;;
6467;SDS011;3267;48.794;9.928;2023-06-22T16:41:18;9.88;;;3.28;;
6467;SDS011;3267;48.794;9.928;2023-06-22T16:43:44;16.77;;;4.78;;
6467;SDS011;3267;48.794;9.928;2023-06-22T16:46:10;18.88;;;7.45;;
6467;SDS011;3267;48.794;9.928;2023-06-22T16:48:36;10.25;;;4.45;;
6467;SDS011;3267;48.794;9.928;2023-06-22T16:51:02;16.17;;;3.70;;
6467;SDS011;3267;48.794;9.928;2023-06-22T16:53:31;12.00;;;3.33;;
6467;SDS011;3267;48.794;9.928;2023-06-22T16:56:01;9.70;;;4.18;;
6467;SDS011;3267;48.794;9.928;2023-06-22T16:58:27;15.48;;;4.90;;
6467;SDS011;3267;48.794;9.928;2023-06-22T17:00:54;8.68;;;4.00;;
6467;SDS011;3267;48.794;9.928;2023-06-22T17:03:24;12.95;;;3.72;;
6467;SDS011;3267;48.794;9.928;2023-06-22T17:05:53;13.05;;;3.90;;
6467;SDS011;3267;48.794;9.928;2023-06-22T17:08:21;6.72;;;4.07;;
6467;SDS011;3267;48.794;9.928;2023-06-22T17:10:47;9.95;;;3.80;;
6467;SDS011;3267;48.794;9.928;2023-06-22T17:13:13;9.50;;;4.05;;
6467;SDS011;3267;48.794;9.928;2023-06-22T17:15:40;9.77;;;4.00;;
6467;SDS011;3267;48.794;9.928;2023-06-22T17:18:07;7.70;;;3.40;;
6467;SDS011;3267;48.794;9.928;2023-06-22T17:20:33;7.93;;;3.28;;
6467;SDS011;3267;48.794;9.928;2023-06-22T17:22:59;10.88;;;3.88;;
6467;SDS011;3267;48.794;9.928;2023-06-22T17:25:27;9.32;;;3.75;;
6467;SDS011;3267;48.794;9.928;2023-06-22T17:28:00;9.25;;;3.78;;
6467;SDS011;3267;48.794;9.928;2023-06-22T17:30:26;8.63;;;3.28;;
6467;SDS011;3267;48.794;9.928;2023-06-22T17:32:53;11.48;;;4.18;;
6467;SDS011;3267;48.794;9.928;2023-06-22T17:35:19;10.73;;;3.65;;
6467;SDS011;3267;48.794;9.928;2023-06-22T17:37:49;7.20;;;2.63;;
6467;SDS011;3267;48.794;9.928;2023-06-22T17:40:20;6.93;;;2.85;;
6467;SDS011;3267;48.794;9.928;2023-06-22T17:42:46;15.23;;;3.08;;
6467;SDS011;3267;48.794;9.928;2023-06-22T17:45:16;8.52;;;2.72;;
6467;SDS011;3267;48.794;9.928;2023-06-22T17:47:48;10.35;;;4.22;;
6467;SDS011;3267;48.794;9.928;2023-06-22T17:50:15;8.85;;;2.90;;
6467;SDS011;3267;48.794;9.928;2023-06-22T17:52:41;8.40;;;2.47;;
6467;SDS011;3267;48.794;9.928;2023-06-22T17:55:07;8.23;;;2.85;;
6467;SDS011;3267;48.794;9.928;2023-06-22T17:57:36;14.10;;;2.90;;
6467;SDS011;3267;48.794;9.928;2023-06-22T18:00:04;12.35;;;3.65;;
6467;SDS011;3267;48.794;9.928;2023-06-22T18:02:35;17.50;;;2.75;;
6467;SDS011;3267;48.794;9.928;2023-06-22T18:05:04;7.25;;;2.17;;
6467;SDS011;3267;48.794;9.928;2023-06-22T18:07:34;6.65;;;2.63;;
6467;SDS011;3267;48.794;9.928;2023-06-22T18:10:02;9.60;;;2.35;;
6467;SDS011;3267;48.794;9.928;2023-06-22T18:12:32;11.02;;;3.05;;
6467;SDS011;3267;48.794;9.928;2023-06-22T18:14:59;14.65;;;3.45;;
6467;SDS011;3267;48.794;9.928;2023-06-22T18:17:25;7.53;;;2.50;;
6467;SDS011;3267;48.794;9.928;2023-06-22T18:19:52;11.70;;;3.42;;
6467;SDS011;3267;48.794;9.928;2023-06-22T18:22:18;8.00;;;2.55;;
6467;SDS011;3267;48.794;9.928;2023-06-22T18:24:44;5.15;;;2.45;;
6467;SDS011;3267;48.794;9.928;2023-06-22T18:27:10;7.95;;;2.53;;
6467;SDS011;3267;48.794;9.928;2023-06-22T18:29:37;8.15;;;2.63;;
6467;SDS011;3267;48.794;9.928;2023-06-22T18:32:03;10.35;;;2.47;;
6467;SDS011;3267;48.794;9.928;2023-06-22T18:34:29;9.25;;;2.58;;
6467;SDS011;3267;48.794;9.928;2023-06-22T18:36:55;8.20;;;2.38;;
6467;SDS011;3267;48.794;9.928;2023-06-22T18:39:23;10.63;;;2.63;;
6467;SDS011;3267;48.794;9.928;2023-06-22T18:41:53;10.40;;;2.45;;
6467;SDS011;3267;48.794;9.928;2023-06-22T18:44:27;9.98;;;2.78;;
6467;SDS011;3267;48.794;9.928;2023-06-22T18:46:57;6.75;;;2.10;;
6467;SDS011;3267;48.794;9.928;2023-06-22T18:49:25;6.38;;;2.67;;
6467;SDS011;3267;48.794;9.928;2023-06-22T18:52:02;5.95;;;2.80;;
6467;SDS011;3267;48.794;9.928;2023-06-22T18:54:35;7.43;;;2.75;;
6467;SDS011;3267;48.794;9.928;2023-06-22T18:57:12;8.32;;;2.92;;
6467;SDS011;3267;48.794;9.928;2023-06-22T18:59:39;6.88;;;2.53;;
6467;SDS011;3267;48.794;9.928;2023-06-22T19:02:09;8.52;;;2.65;;
6467;SDS011;3267;48.794;9.928;2023-06-22T19:04:36;4.18;;;2.20;;
6467;SDS011;3267;48.794;9.928;2023-06-22T19:07:07;8.90;;;2.35;;
6467;SDS011;3267;48.794;9.928;2023-06-22T19:09:33;5.45;;;2.22;;